OIKQ 
Dayrestan Airport
Iran 
ICAOStatus
OIKQOperational
LatitudeLongitude
26° 45' 16" N55° 54' 8" E
26.75460155.902401
Local Time (DST+5)UTC (GMT+4)
04-17-2014 05:36 am04-17-2014 01:06
Sunrise-SunsetLocalUTC
Begin Civil Twilight05:55 am01:25
Sunrise06:19 am01:49
Sunset07:12 pm14:42
End Civil Twilight07:36 pm15:06

Current Weather

METARObservedFlight Conditions

OIKQ 170000Z 00000KT 4000 BR NSC 25/23 Q1007

Thu, Apr 17, 2014 @ 00:00 UTC(Z)

(1 Hour, 6 Minutes ago)

IFR

(Instrument Flight Rules)

WindVisibilityCloudsConditions
Calm
4000 meters
  • Clear skies
  • Mist
TemperaturesReadingsPrecipitation
Current Temp25°C (77°F)
Dewpoint23°C (73°F)
Humidity89%
Altimeter29.73"Hg
Sea Level Pressure1007mb
Field Elevation39.37'
None Recorded

Additional weather within a 92.6km radius of OIKQ

Location METAR
OIKB

69.8km N (042°)

1 hour, 6 minutes ago
VFR VFR    MVFR MVFR    IFR IFR    LIFR LIFR    Unknown Unknown

Previous 24 hour Weather Graphs

  Loading...

CheckWX.com is intended as a tool to help pilots better visualize weather data.   It is not intended as a substitute for an official weather briefing obtained from a Flight Service Station.
CheckWX.com does not meet the FAA requirements for an official pre-flight weather briefing.   Therefore, it's important that pilots still call and obtain an official FSS pre-flight weather briefing.